Time;durP1;ratioP1;P1;durP2;ratioP2;P2;SDS_P1;SDS_P2;PMS_P1;PMS_P2;Temp;Humidity;BMP_temperature;BMP_pressure;BME280_temperature;BME280_humidity;BME280_pressure;Samples;Min_cycle;Max_cycle;Signal;HPM_P1;HPM_P2
2022/06/16 00:00:19;;;;;;;2.95;1.65;;;;;23.50;101828.00;;;;5045605;28;20971;-78
2022/06/16 00:02:48;;;;;;;3.97;2.35;;;;;23.50;101838.00;;;;5046886;28;20223;-78
2022/06/16 00:05:18;;;;;;;2.83;1.65;;;;;23.50;101843.00;;;;5047022;28;20211;-78
2022/06/16 00:07:49;;;;;;;2.08;1.90;;;;;23.50;101847.00;;;;5047022;28;20195;-78
2022/06/16 00:10:17;;;;;;;2.03;1.77;;;;;23.40;101849.00;;;;5045983;28;20208;-78
2022/06/16 00:12:44;;;;;;;2.50;2.10;;;;;23.40;101850.00;;;;5046446;28;20204;-78
2022/06/16 00:15:16;;;;;;;3.60;2.00;;;;;23.30;101843.00;;;;5045017;28;20199;-78
2022/06/16 00:17:44;;;;;;;3.88;1.63;;;;;23.30;101843.00;;;;5042774;28;20196;-78
2022/06/16 00:20:12;;;;;;;2.78;1.60;;;;;23.30;101841.00;;;;5044959;28;20203;-78
2022/06/16 00:22:40;;;;;;;3.20;2.00;;;;;23.30;101832.00;;;;5046663;28;20598;-78
2022/06/16 00:25:08;;;;;;;4.00;1.75;;;;;23.20;101845.00;;;;5048937;28;20210;-78
2022/06/16 00:27:36;;;;;;;2.95;1.92;;;;;23.20;101839.00;;;;5048672;28;20602;-78
2022/06/16 00:30:05;;;;;;;2.20;1.92;;;;;23.10;101846.00;;;;5048061;28;20195;-78
2022/06/16 00:32:34;;;;;;;4.18;2.20;;;;;23.10;101849.00;;;;5048903;28;20212;-78
2022/06/16 00:35:01;;;;;;;3.92;1.88;;;;;23.10;101845.00;;;;5048024;28;20204;-78
2022/06/16 00:37:28;;;;;;;5.60;2.08;;;;;23.10;101851.00;;;;5050720;28;20196;-78
2022/06/16 00:39:56;;;;;;;2.97;2.15;;;;;23.00;101850.00;;;;5048230;28;20199;-78
2022/06/16 00:42:25;;;;;;;2.97;1.92;;;;;23.00;101846.00;;;;5050437;28;20242;-78
2022/06/16 00:44:54;;;;;;;2.78;1.85;;;;;22.90;101848.00;;;;5050005;28;20188;-78
2022/06/16 00:47:23;;;;;;;2.28;2.08;;;;;22.90;101849.00;;;;5051315;28;20188;-78
2022/06/16 00:49:54;;;;;;;2.10;1.75;;;;;22.80;101850.00;;;;5044945;28;20200;-78
2022/06/16 00:52:25;;;;;;;3.85;2.50;;;;;22.80;101851.00;;;;5031364;28;20204;-78
2022/06/16 00:54:59;;;;;;;2.38;1.60;;;;;22.70;101848.00;;;;5050767;28;20212;-78
2022/06/16 00:57:32;;;;;;;3.95;1.90;;;;;22.70;101848.00;;;;5049811;28;20200;-78
2022/06/16 01:00:01;;;;;;;1.98;1.83;;;;;22.70;101849.00;;;;5048245;28;20211;-79
2022/06/16 01:02:29;;;;;;;3.90;1.92;;;;;22.60;101847.00;;;;5049671;28;20555;-78
2022/06/16 01:04:57;;;;;;;2.67;1.40;;;;;22.60;101858.00;;;;5068829;28;20195;-78
2022/06/16 01:07:27;;;;;;;1.98;1.30;;;;;22.60;101864.00;;;;5071032;28;20255;-78
2022/06/16 01:09:56;;;;;;;3.53;1.90;;;;;22.50;101862.00;;;;5057231;28;20231;-78
2022/06/16 01:16:07;;;;;;;1.67;1.40;;;;;22.30;101864.00;;;;5007312;28;20246;-78
2022/06/16 01:18:47;;;;;;;5.32;1.55;;;;;22.30;101861.00;;;;5008320;28;20227;-78
2022/06/16 01:21:21;;;;;;;2.50;1.60;;;;;22.20;101873.00;;;;5041926;28;20242;-78
2022/06/16 01:24:20;;;;;;;2.63;1.50;;;;;22.10;101877.00;;;;5049695;28;20225;-78
2022/06/16 01:27:06;;;;;;;1.55;1.45;;;;;22.10;101876.00;;;;5048461;28;20203;-78
2022/06/16 01:29:39;;;;;;;2.10;1.67;;;;;22.10;101875.00;;;;5050675;28;20196;-78
2022/06/16 01:32:15;;;;;;;1.73;1.52;;;;;22.00;101877.00;;;;5049983;28;20217;-78
2022/06/16 01:35:00;;;;;;;2.80;2.20;;;;;22.00;101877.00;;;;5050343;28;20203;-78
2022/06/16 01:37:35;;;;;;;2.10;1.42;;;;;21.90;101883.00;;;;4987453;28;20197;-78
2022/06/16 01:40:08;;;;;;;2.55;1.42;;;;;21.80;101881.00;;;;4987416;28;20205;-78
2022/06/16 01:42:41;;;;;;;2.63;1.85;;;;;21.80;101878.00;;;;4987771;28;20237;-78
2022/06/16 01:45:16;;;;;;;3.47;1.67;;;;;21.70;101881.00;;;;4994993;28;20711;-78
2022/06/16 01:47:49;;;;;;;2.22;1.52;;;;;21.70;101873.00;;;;4995301;28;20204;-78
2022/06/16 01:50:21;;;;;;;2.92;1.75;;;;;21.60;101863.00;;;;4994471;28;20672;-78
2022/06/16 01:52:51;;;;;;;3.15;1.98;;;;;21.60;101865.00;;;;4987683;28;20852;-78
2022/06/16 01:55:23;;;;;;;2.90;2.10;;;;;21.50;101874.00;;;;4987916;28;20358;-78
2022/06/16 01:57:54;;;;;;;2.08;1.88;;;;;21.50;101870.00;;;;4984623;28;20197;-78
2022/06/16 02:00:26;;;;;;;4.90;1.90;;;;;21.40;101870.00;;;;4985899;28;20201;-78
2022/06/16 02:02:58;;;;;;;3.42;2.25;;;;;21.40;101864.00;;;;4987693;28;20739;-78
2022/06/16 02:05:29;;;;;;;2.88;1.85;;;;;21.40;101873.00;;;;4987780;28;20197;-78
2022/06/16 02:08:02;;;;;;;2.83;2.00;;;;;21.30;101880.00;;;;5001640;28;20192;-78
2022/06/16 02:10:34;;;;;;;2.30;1.55;;;;;21.30;101875.00;;;;5048793;28;20235;-78
2022/06/16 02:13:04;;;;;;;2.00;1.65;;;;;21.30;101879.00;;;;5048843;28;20206;-78
2022/06/16 02:15:40;;;;;;;2.03;1.77;;;;;21.20;101871.00;;;;5049578;28;20684;-78
2022/06/16 02:18:12;;;;;;;2.03;1.70;;;;;21.20;101876.00;;;;5034133;28;20218;-78
2022/06/16 02:20:50;;;;;;;2.75;1.80;;;;;21.10;101873.00;;;;5047768;28;20196;-78
2022/06/16 02:23:17;;;;;;;3.92;2.25;;;;;21.10;101878.00;;;;5048598;28;20231;-78
2022/06/16 02:25:47;;;;;;;3.05;1.80;;;;;21.10;101878.00;;;;5047629;28;20207;-77
2022/06/16 02:28:15;;;;;;;3.42;1.55;;;;;21.10;101884.00;;;;5048074;28;20198;-78
2022/06/16 02:30:56;;;;;;;3.60;2.22;;;;;20.90;101882.00;;;;5048768;28;20345;-78
2022/06/16 02:33:31;;;;;;;2.88;2.17;;;;;21.00;101887.00;;;;5048811;28;20214;-78
2022/06/16 02:36:09;;;;;;;3.03;1.70;;;;;20.90;101895.00;;;;5039824;28;20207;-78
2022/06/16 02:38:49;;;;;;;2.40;2.15;;;;;20.90;101888.00;;;;5044493;28;20200;-78
2022/06/16 02:41:28;;;;;;;2.58;2.08;;;;;20.90;101900.00;;;;5047791;28;20211;-78
2022/06/16 02:44:05;;;;;;;2.67;1.85;;;;;20.80;101894.00;;;;5047082;28;20606;-78
2022/06/16 02:46:46;;;;;;;2.40;2.20;;;;;20.80;101889.00;;;;5047056;28;20210;-78
2022/06/16 02:49:23;;;;;;;4.75;2.00;;;;;20.80;101898.00;;;;5047505;28;20211;-78
2022/06/16 02:52:02;;;;;;;2.28;2.08;;;;;20.70;101895.00;;;;5042125;28;20203;-78
2022/06/16 02:54:36;;;;;;;3.70;2.25;;;;;20.70;101896.00;;;;5048492;28;20541;-78
2022/06/16 02:57:09;;;;;;;4.78;2.25;;;;;20.70;101898.00;;;;5046577;28;20200;-78
2022/06/16 02:59:39;;;;;;;2.95;2.13;;;;;20.70;101904.00;;;;5046495;28;20669;-78
2022/06/16 03:02:11;;;;;;;2.40;1.83;;;;;20.70;101909.00;;;;5045685;28;20275;-78
2022/06/16 03:04:40;;;;;;;2.42;1.83;;;;;20.70;101913.00;;;;5047937;28;20709;-78
2022/06/16 03:07:11;;;;;;;3.88;2.30;;;;;20.70;101912.00;;;;5044300;28;20943;-76
2022/06/16 03:09:38;;;;;;;2.40;2.15;;;;;20.70;101913.00;;;;5041958;28;20191;-78
2022/06/16 03:12:07;;;;;;;4.28;3.00;;;;;20.60;101911.00;;;;5045793;28;20207;-78
2022/06/16 03:14:34;;;;;;;3.35;2.13;;;;;20.60;101925.00;;;;5046839;28;20199;-78
2022/06/16 03:17:02;;;;;;;2.58;2.28;;;;;20.60;101928.00;;;;5044879;28;20578;-78
2022/06/16 03:19:31;;;;;;;3.20;2.25;;;;;20.50;101930.00;;;;5047101;28;20219;-78
2022/06/16 03:21:58;;;;;;;2.55;1.90;;;;;20.50;101930.00;;;;5047311;28;20200;-78
2022/06/16 03:24:26;;;;;;;3.17;2.10;;;;;20.50;101938.00;;;;5048471;28;20227;-78
2022/06/16 03:26:53;;;;;;;2.72;1.95;;;;;20.50;101938.00;;;;5039090;28;20215;-78
2022/06/16 03:29:20;;;;;;;3.38;2.33;;;;;20.40;101939.00;;;;5047359;28;20195;-78
2022/06/16 03:31:48;;;;;;;5.15;2.17;;;;;20.40;101930.00;;;;5049553;28;20195;-78
2022/06/16 03:34:15;;;;;;;3.40;2.30;;;;;20.40;101946.00;;;;5045725;28;20981;-78
2022/06/16 03:36:44;;;;;;;2.47;1.92;;;;;20.30;101952.00;;;;5047570;28;20213;-78
2022/06/16 03:39:11;;;;;;;2.10;1.90;;;;;20.30;101946.00;;;;5045872;28;20208;-78
2022/06/16 03:41:39;;;;;;;3.78;1.90;;;;;20.30;101949.00;;;;5035540;28;20216;-78
2022/06/16 03:44:06;;;;;;;3.33;2.42;;;;;20.30;101956.00;;;;5046029;28;20239;-78
2022/06/16 03:46:34;;;;;;;4.13;2.22;;;;;20.30;101951.00;;;;5047735;28;20219;-78
2022/06/16 03:49:02;;;;;;;3.75;2.55;;;;;20.30;101948.00;;;;5045896;28;20196;-78
2022/06/16 03:51:30;;;;;;;3.38;2.72;;;;;20.30;101952.00;;;;5041323;28;20253;-78
2022/06/16 03:53:58;;;;;;;2.22;2.03;;;;;20.30;101947.00;;;;5047366;28;20215;-78
2022/06/16 03:56:26;;;;;;;2.55;2.35;;;;;20.30;101941.00;;;;5046750;28;20202;-78
2022/06/16 03:58:54;;;;;;;2.92;2.22;;;;;20.30;101952.00;;;;5048335;28;20204;-78
2022/06/16 04:01:21;;;;;;;2.63;2.10;;;;;20.30;101951.00;;;;5048971;28;20199;-78
2022/06/16 04:04:01;;;;;;;4.55;2.53;;;;;20.30;101949.00;;;;5050707;28;20720;-78
2022/06/16 04:06:29;;;;;;;3.05;2.17;;;;;20.20;101958.00;;;;5051672;28;20211;-78
2022/06/16 04:08:58;;;;;;;6.50;2.30;;;;;20.20;101956.00;;;;5049186;28;20200;-78
2022/06/16 04:11:29;;;;;;;2.38;1.77;;;;;20.20;101955.00;;;;5050953;28;20200;-78
2022/06/16 04:14:00;;;;;;;3.42;2.17;;;;;20.20;101959.00;;;;5050298;28;20199;-78
2022/06/16 04:16:29;;;;;;;3.00;2.10;;;;;20.30;101959.00;;;;5043864;28;20682;-78
2022/06/16 04:18:56;;;;;;;3.17;2.00;;;;;20.30;101967.00;;;;5050020;28;20242;-78
2022/06/16 04:21:23;;;;;;;3.72;2.05;;;;;20.30;101960.00;;;;5048912;28;20876;-78
2022/06/16 04:23:51;;;;;;;3.03;2.13;;;;;20.30;101960.00;;;;5048314;28;20219;-78
2022/06/16 04:26:20;;;;;;;3.67;2.40;;;;;20.30;101961.00;;;;5049999;28;20192;-78
2022/06/16 04:28:47;;;;;;;3.45;2.05;;;;;20.30;101966.00;;;;5049817;28;20207;-78
2022/06/16 04:31:15;;;;;;;3.47;2.28;;;;;20.30;101969.00;;;;5048926;28;20196;-78
2022/06/16 04:33:42;;;;;;;5.47;2.42;;;;;20.30;101974.00;;;;5046264;28;20569;-78
2022/06/16 04:36:10;;;;;;;3.70;2.60;;;;;20.20;101975.00;;;;5051079;28;20200;-78
2022/06/16 04:38:38;;;;;;;5.50;2.72;;;;;20.20;101981.00;;;;5050424;28;20534;-78
2022/06/16 04:41:05;;;;;;;4.47;2.60;;;;;20.30;101998.00;;;;5047578;28;20196;-79
2022/06/16 04:43:34;;;;;;;3.97;2.65;;;;;20.20;101998.00;;;;5049356;28;20235;-78
2022/06/16 04:46:03;;;;;;;3.75;2.80;;;;;20.30;102004.00;;;;5047368;28;20211;-78
2022/06/16 04:48:31;;;;;;;5.30;2.70;;;;;20.30;102000.00;;;;5049868;28;20220;-78
2022/06/16 04:51:00;;;;;;;4.85;2.60;;;;;20.40;102002.00;;;;5048902;28;20195;-78
2022/06/16 04:53:27;;;;;;;3.63;2.63;;;;;20.40;102003.00;;;;5049566;28;20673;-78
2022/06/16 04:55:56;;;;;;;3.90;3.00;;;;;20.40;102002.00;;;;5048380;28;20206;-78
2022/06/16 04:58:24;;;;;;;3.33;2.33;;;;;20.40;102007.00;;;;5050153;28;20211;-78
2022/06/16 05:00:54;;;;;;;6.18;2.70;;;;;20.50;102006.00;;;;5047253;28;20199;-77
2022/06/16 05:03:25;;;;;;;3.25;2.80;;;;;20.50;102006.00;;;;5050779;28;20223;-78
2022/06/16 05:05:53;;;;;;;3.17;2.28;;;;;20.60;102011.00;;;;5045681;28;20204;-78
2022/06/16 05:08:21;;;;;;;4.47;2.38;;;;;20.70;102013.00;;;;5044660;28;20214;-78
2022/06/16 05:10:50;;;;;;;2.85;2.13;;;;;20.70;102015.00;;;;5045581;28;20250;-78
2022/06/16 05:13:18;;;;;;;2.85;2.22;;;;;20.70;102028.00;;;;5047479;28;20677;-78
2022/06/16 05:15:46;;;;;;;2.90;2.25;;;;;20.80;102023.00;;;;5048566;28;20199;-78
2022/06/16 05:18:15;;;;;;;2.53;2.13;;;;;20.80;102027.00;;;;5048113;28;20592;-78
2022/06/16 05:20:42;;;;;;;4.82;2.38;;;;;20.90;102028.00;;;;5047112;28;20220;-78
2022/06/16 05:23:10;;;;;;;2.25;2.00;;;;;21.00;102033.00;;;;5047736;28;20192;-79
2022/06/16 05:25:38;;;;;;;2.55;2.30;;;;;21.00;102035.00;;;;5048423;28;20207;-78
2022/06/16 05:28:07;;;;;;;4.13;2.05;;;;;21.10;102043.00;;;;5047326;28;20205;-77
2022/06/16 05:30:34;;;;;;;3.03;1.85;;;;;21.20;102046.00;;;;5043811;28;20219;-78
2022/06/16 05:33:02;;;;;;;2.03;1.83;;;;;21.20;102057.00;;;;5049425;28;20199;-76
2022/06/16 05:35:30;;;;;;;3.83;1.83;;;;;21.30;102060.00;;;;5043550;28;20204;-78
2022/06/16 05:37:58;;;;;;;2.92;2.03;;;;;21.40;102057.00;;;;5048277;28;20199;-76
2022/06/16 05:40:25;;;;;;;2.60;1.85;;;;;21.40;102067.00;;;;5049706;28;20719;-76
2022/06/16 05:42:53;;;;;;;5.18;1.80;;;;;21.50;102066.00;;;;5046151;28;20247;-76
2022/06/16 05:45:20;;;;;;;3.22;1.70;;;;;21.60;102071.00;;;;5045163;28;20235;-76
2022/06/16 05:47:48;;;;;;;2.53;1.85;;;;;21.70;102075.00;;;;5045521;28;20207;-76
2022/06/16 05:50:17;;;;;;;3.05;1.70;;;;;21.70;102072.00;;;;5049289;28;20210;-77
2022/06/16 05:52:48;;;;;;;2.25;1.70;;;;;21.80;102082.00;;;;5044275;28;20187;-76
2022/06/16 05:55:17;;;;;;;2.72;1.67;;;;;21.90;102077.00;;;;5045480;28;20207;-75
2022/06/16 05:57:45;;;;;;;2.95;1.40;;;;;22.00;102083.00;;;;5046642;28;20200;-76
2022/06/16 06:00:13;;;;;;;2.33;1.40;;;;;22.00;102084.00;;;;5048708;28;20199;-74
2022/06/16 06:02:40;;;;;;;1.73;1.60;;;;;22.10;102079.00;;;;5049470;28;20673;-75
2022/06/16 06:05:08;;;;;;;1.35;1.25;;;;;22.20;102087.00;;;;5048236;28;20596;-75
2022/06/16 06:18:34;;;;;;;2.58;1.38;;;;;22.50;102068.00;;;;5047984;28;20882;-76
2022/06/16 06:21:01;;;;;;;1.33;1.20;;;;;22.50;102068.00;;;;5048286;28;20215;-76
2022/06/16 06:23:28;;;;;;;2.15;1.10;;;;;22.60;102076.00;;;;5049158;28;20228;-75
2022/06/16 06:25:58;;;;;;;1.83;1.00;;;;;22.60;102072.00;;;;5048668;28;20218;-76
2022/06/16 06:28:25;;;;;;;1.08;0.95;;;;;22.70;102074.00;;;;5047676;28;20206;-77
2022/06/16 06:30:52;;;;;;;2.15;1.00;;;;;22.80;102080.00;;;;5048377;28;20200;-76
2022/06/16 06:33:20;;;;;;;1.67;1.10;;;;;22.90;102088.00;;;;5045711;28;20569;-77
2022/06/16 06:35:47;;;;;;;1.40;1.13;;;;;22.90;102088.00;;;;5048857;28;20200;-76
2022/06/16 06:38:15;;;;;;;1.23;0.80;;;;;23.00;102092.00;;;;5048844;28;20235;-76
2022/06/16 06:40:43;;;;;;;1.77;1.13;;;;;23.10;102085.00;;;;5047291;28;20191;-76
2022/06/16 06:43:13;;;;;;;1.55;1.25;;;;;23.10;102086.00;;;;5045267;28;20259;-77
2022/06/16 06:45:40;;;;;;;2.95;1.30;;;;;23.20;102087.00;;;;5048964;28;20223;-77
2022/06/16 06:48:08;;;;;;;1.88;0.85;;;;;23.30;102083.00;;;;5048298;28;20206;-77
2022/06/16 06:50:39;;;;;;;4.05;1.30;;;;;23.30;102081.00;;;;5042883;28;20203;-76
2022/06/16 06:53:06;;;;;;;1.40;0.90;;;;;23.50;102078.00;;;;5041213;28;20196;-77
2022/06/16 06:55:36;;;;;;;1.48;0.88;;;;;23.50;102081.00;;;;5043324;28;20296;-77
2022/06/16 06:58:06;;;;;;;1.85;1.05;;;;;23.60;102085.00;;;;5044482;28;20573;-76
2022/06/16 07:00:34;;;;;;;2.08;1.00;;;;;23.70;102099.00;;;;5044383;28;20253;-76
2022/06/16 07:03:01;;;;;;;1.55;1.00;;;;;23.80;102096.00;;;;5046953;28;20218;-76
2022/06/16 07:05:29;;;;;;;1.35;0.90;;;;;23.90;102086.00;;;;5046347;28;20227;-76
2022/06/16 07:07:58;;;;;;;1.20;0.82;;;;;24.00;102090.00;;;;5035357;28;20195;-77
2022/06/16 07:10:26;;;;;;;2.28;0.85;;;;;24.10;102094.00;;;;5044682;28;20196;-76
2022/06/16 07:12:54;;;;;;;1.88;1.00;;;;;24.20;102092.00;;;;5047539;28;20554;-76
2022/06/16 07:15:22;;;;;;;1.98;0.98;;;;;24.30;102099.00;;;;5046230;28;20208;-77
2022/06/16 07:17:51;;;;;;;4.00;1.08;;;;;24.40;102108.00;;;;5047609;28;20575;-77
2022/06/16 07:20:19;;;;;;;2.42;1.10;;;;;24.40;102112.00;;;;5047911;28;20198;-77
2022/06/16 07:22:47;;;;;;;2.67;1.50;;;;;24.50;102110.00;;;;5045853;28;20192;-77
2022/06/16 07:25:16;;;;;;;2.60;1.35;;;;;24.60;102111.00;;;;5028946;28;20242;-77
2022/06/16 07:27:43;;;;;;;2.70;1.30;;;;;24.70;102112.00;;;;5028985;28;20227;-77
2022/06/16 07:30:15;;;;;;;2.08;1.25;;;;;24.70;102116.00;;;;5028076;28;20223;-77
2022/06/16 07:32:46;;;;;;;3.15;1.30;;;;;24.80;102126.00;;;;5037653;28;20764;-78
2022/06/16 07:35:17;;;;;;;3.60;1.25;;;;;24.90;102134.00;;;;5051653;28;20203;-78
2022/06/16 07:37:44;;;;;;;3.25;1.67;;;;;25.00;102128.00;;;;5052583;28;20210;-77
2022/06/16 07:40:14;;;;;;;2.03;1.63;;;;;25.10;102133.00;;;;5044426;28;20200;-78
2022/06/16 07:42:41;;;;;;;2.90;1.45;;;;;25.10;102136.00;;;;5033070;28;20231;-78
2022/06/16 07:45:09;;;;;;;1.63;1.30;;;;;25.20;102145.00;;;;5031814;28;20234;-78
2022/06/16 07:47:36;;;;;;;2.10;1.15;;;;;25.30;102150.00;;;;5032297;28;20680;-78
2022/06/16 07:50:08;;;;;;;4.82;1.55;;;;;25.40;102157.00;;;;5038987;28;20278;-78
2022/06/16 07:52:37;;;;;;;2.08;1.30;;;;;25.50;102163.00;;;;5052608;28;20192;-77
2022/06/16 07:55:05;;;;;;;1.80;1.45;;;;;25.70;102161.00;;;;5051138;28;20211;-78
2022/06/16 07:57:34;;;;;;;1.95;1.30;;;;;25.80;102166.00;;;;5044683;28;20670;-77
2022/06/16 08:00:02;;;;;;;1.33;0.98;;;;;25.90;102170.00;;;;5037622;28;20203;-77
2022/06/16 08:02:30;;;;;;;1.38;1.00;;;;;26.00;102166.00;;;;5050749;28;20195;-77
2022/06/16 08:04:57;;;;;;;1.10;1.00;;;;;26.20;102159.00;;;;5048734;28;20230;-77
2022/06/16 08:07:25;;;;;;;1.95;1.20;;;;;26.30;102169.00;;;;5049571;28;20202;-79
2022/06/16 08:09:53;;;;;;;1.90;1.10;;;;;26.40;102166.00;;;;5049093;28;20226;-78
2022/06/16 08:12:21;;;;;;;2.95;1.17;;;;;26.60;102169.00;;;;5048039;28;20203;-78
2022/06/16 08:14:49;;;;;;;1.35;1.23;;;;;26.70;102173.00;;;;5045801;28;20270;-78
2022/06/16 08:17:20;;;;;;;3.28;1.33;;;;;26.80;102173.00;;;;5051480;28;20212;-78
2022/06/16 08:19:47;;;;;;;2.28;1.30;;;;;26.90;102175.00;;;;5051551;28;20219;-78
2022/06/16 08:22:14;;;;;;;2.90;1.13;;;;;27.00;102174.00;;;;5050563;28;20207;-77
2022/06/16 08:24:42;;;;;;;3.78;1.80;;;;;27.10;102165.00;;;;5050861;28;20219;-79
2022/06/16 08:27:11;;;;;;;3.97;1.02;;;;;27.20;102164.00;;;;5051284;28;20200;-77
2022/06/16 08:29:42;;;;;;;2.05;1.30;;;;;27.30;102169.00;;;;5050330;28;20196;-77
2022/06/16 08:32:11;;;;;;;1.58;1.38;;;;;27.40;102171.00;;;;5049079;28;20200;-77
2022/06/16 08:34:39;;;;;;;3.13;1.08;;;;;27.50;102184.00;;;;5050502;28;20215;-77
2022/06/16 08:37:06;;;;;;;3.42;1.58;;;;;27.60;102190.00;;;;5050432;28;20203;-77
2022/06/16 08:39:34;;;;;;;2.25;1.23;;;;;27.80;102193.00;;;;5051881;28;20196;-78
2022/06/16 08:42:14;;;;;;;2.08;1.35;;;;;27.80;102194.00;;;;5049224;28;20203;-78
2022/06/16 08:44:46;;;;;;;1.75;1.20;;;;;28.00;102192.00;;;;5045641;28;20223;-78
2022/06/16 08:47:19;;;;;;;2.17;1.38;;;;;28.00;102187.00;;;;5050891;28;20253;-79
2022/06/16 08:49:55;;;;;;;2.00;1.20;;;;;28.10;102181.00;;;;5034491;28;20681;-79
2022/06/16 08:52:29;;;;;;;2.70;1.38;;;;;28.20;102177.00;;;;5049323;28;20206;-80
2022/06/16 08:55:05;;;;;;;2.42;1.40;;;;;28.30;102174.00;;;;5050868;28;20199;-80
2022/06/16 08:57:43;;;;;;;3.10;1.30;;;;;28.40;102172.00;;;;5051026;28;20592;-80
2022/06/16 09:00:15;;;;;;;3.00;1.45;;;;;28.50;102172.00;;;;5050400;28;20594;-80
2022/06/16 09:02:47;;;;;;;3.00;1.83;;;;;28.60;102169.00;;;;5050015;28;20241;-80
2022/06/16 09:05:29;;;;;;;1.40;1.23;;;;;28.70;102169.00;;;;5046975;28;20309;-81
2022/06/16 09:08:03;;;;;;;3.45;1.65;;;;;28.80;102165.00;;;;5030597;28;20196;-78
2022/06/16 09:10:38;;;;;;;1.40;1.25;;;;;28.90;102177.00;;;;5049385;28;20195;-80
2022/06/16 09:13:57;;;;;;;3.55;1.40;;;;;29.00;102176.00;;;;5049897;28;20210;-79
2022/06/16 09:16:35;;;;;;;1.88;1.30;;;;;29.20;102191.00;;;;5046343;28;20207;-79
2022/06/16 09:19:32;;;;;;;1.92;1.38;;;;;29.20;102198.00;;;;5050050;28;20230;-79
2022/06/16 09:22:08;;;;;;;1.83;1.52;;;;;29.40;102200.00;;;;5047136;28;20215;-79
2022/06/16 09:25:02;;;;;;;1.75;1.33;;;;;29.40;102204.00;;;;5050067;28;20598;-79
2022/06/16 09:27:34;;;;;;;2.17;1.45;;;;;29.60;102205.00;;;;5044850;28;20214;-78
2022/06/16 09:30:08;;;;;;;1.98;1.42;;;;;29.60;102201.00;;;;5049752;28;20191;-79
2022/06/16 09:32:41;;;;;;;1.65;1.30;;;;;29.70;102202.00;;;;5049442;28;20195;-79
2022/06/16 09:35:15;;;;;;;1.40;1.27;;;;;29.80;102203.00;;;;5049763;28;20604;-79
2022/06/16 09:37:46;;;;;;;1.40;1.02;;;;;29.90;102205.00;;;;5050018;28;20195;-79
2022/06/16 09:40:18;;;;;;;1.88;1.33;;;;;30.00;102210.00;;;;5039838;28;20701;-79
2022/06/16 09:42:52;;;;;;;3.28;1.60;;;;;30.00;102206.00;;;;5046999;28;20234;-79
2022/06/16 09:45:27;;;;;;;1.40;1.30;;;;;30.10;102205.00;;;;5049056;28;20238;-79
2022/06/16 09:47:59;;;;;;;5.25;1.40;;;;;30.20;102210.00;;;;5046138;28;20699;-79
2022/06/16 09:50:36;;;;;;;1.40;1.27;;;;;30.20;102212.00;;;;5048506;28;20196;-79
2022/06/16 09:53:10;;;;;;;4.20;1.52;;;;;30.30;102211.00;;;;5047930;28;20763;-79
2022/06/16 09:55:40;;;;;;;2.80;1.52;;;;;30.40;102210.00;;;;5048187;28;20674;-78
2022/06/16 09:58:14;;;;;;;1.75;1.23;;;;;30.40;102217.00;;;;5045548;28;20269;-79
2022/06/16 10:00:44;;;;;;;1.60;1.20;;;;;30.50;102217.00;;;;5048530;28;20198;-78
2022/06/16 10:03:19;;;;;;;1.77;1.27;;;;;30.50;102209.00;;;;5053668;28;20203;-79
2022/06/16 10:05:58;;;;;;;3.95;1.58;;;;;30.60;102218.00;;;;5048098;28;20226;-79
2022/06/16 10:08:33;;;;;;;2.25;1.27;;;;;30.70;102208.00;;;;5048947;28;20234;-79
2022/06/16 10:11:10;;;;;;;2.63;1.20;;;;;30.80;102221.00;;;;5048330;28;20187;-79
2022/06/16 10:13:44;;;;;;;1.70;1.38;;;;;30.80;102228.00;;;;5039351;28;20196;-79
2022/06/16 10:16:17;;;;;;;2.45;1.50;;;;;30.80;102221.00;;;;5046600;28;20203;-79
2022/06/16 10:18:46;;;;;;;2.67;1.08;;;;;30.90;102220.00;;;;5048802;28;20211;-79
2022/06/16 10:21:16;;;;;;;3.03;1.58;;;;;30.90;102222.00;;;;5047192;28;20203;-79
2022/06/16 10:23:48;;;;;;;5.53;1.60;;;;;30.90;102216.00;;;;5043731;28;20196;-79
2022/06/16 10:26:16;;;;;;;1.90;1.02;;;;;31.00;102215.00;;;;5047752;28;20732;-79
2022/06/16 10:29:02;;;;;;;1.50;1.30;;;;;31.00;102229.00;;;;5048097;28;20203;-79
2022/06/16 10:31:39;;;;;;;3.10;1.27;;;;;30.90;102215.00;;;;5035665;28;20204;-79
2022/06/16 10:34:18;;;;;;;1.65;1.10;;;;;30.90;102213.00;;;;5048038;28;20257;-79
2022/06/16 10:36:54;;;;;;;4.70;1.52;;;;;31.00;102199.00;;;;5045528;28;20199;-80
2022/06/16 10:39:25;;;;;;;3.03;1.15;;;;;31.00;102203.00;;;;5028428;28;20575;-80
2022/06/16 10:42:00;;;;;;;1.50;1.35;;;;;31.00;102209.00;;;;5045967;28;20203;-81
2022/06/16 10:44:29;;;;;;;2.95;1.45;;;;;31.00;102218.00;;;;5048821;28;20198;-79
2022/06/16 10:47:02;;;;;;;1.52;1.35;;;;;31.00;102219.00;;;;5046974;28;20195;-80
2022/06/16 10:49:32;;;;;;;1.98;1.50;;;;;31.00;102223.00;;;;5029256;28;20293;-80
2022/06/16 10:52:03;;;;;;;5.68;1.60;;;;;31.00;102218.00;;;;5041714;28;20238;-80
2022/06/16 10:54:32;;;;;;;2.13;1.45;;;;;31.10;102220.00;;;;5028340;28;20196;-80
2022/06/16 10:57:19;;;;;;;3.35;1.42;;;;;31.00;102214.00;;;;5036404;28;20198;-80
2022/06/16 10:59:50;;;;;;;3.53;1.25;;;;;31.10;102211.00;;;;5043777;28;20661;-80
2022/06/16 11:02:25;;;;;;;2.25;1.23;;;;;31.10;102211.00;;;;5043848;28;20207;-80
2022/06/16 11:04:58;;;;;;;2.78;1.65;;;;;31.10;102217.00;;;;5041243;28;21287;-79
2022/06/16 11:07:30;;;;;;;3.28;1.40;;;;;31.10;102221.00;;;;5048104;28;20203;-79
2022/06/16 11:10:06;;;;;;;2.40;1.42;;;;;31.10;102216.00;;;;5044902;28;20195;-80
2022/06/16 11:12:36;;;;;;;1.90;1.40;;;;;31.10;102227.00;;;;5046000;28;20209;-79
2022/06/16 11:15:10;;;;;;;1.27;1.17;;;;;31.10;102227.00;;;;5047026;28;20200;-80
2022/06/16 11:17:40;;;;;;;1.50;1.20;;;;;31.10;102225.00;;;;5046350;28;20204;-80
2022/06/16 11:20:17;;;;;;;6.13;1.50;;;;;31.00;102228.00;;;;5047567;28;20238;-78
2022/06/16 11:22:47;;;;;;;2.90;1.45;;;;;31.10;102230.00;;;;5043930;28;20199;-78
2022/06/16 11:25:21;;;;;;;2.20;1.20;;;;;31.00;102227.00;;;;5047863;28;20231;-79
2022/06/16 11:27:52;;;;;;;3.35;1.83;;;;;31.10;102233.00;;;;5046105;28;20223;-79
2022/06/16 11:30:30;;;;;;;3.70;1.20;;;;;31.00;102225.00;;;;5047757;28;20210;-79
2022/06/16 11:32:59;;;;;;;2.47;1.80;;;;;31.10;102228.00;;;;5047574;28;20203;-78
2022/06/16 11:35:33;;;;;;;2.75;1.60;;;;;31.00;102228.00;;;;5047503;28;20195;-79
2022/06/16 11:38:06;;;;;;;1.65;1.33;;;;;31.00;102225.00;;;;5042503;28;20201;-79
2022/06/16 11:40:41;;;;;;;2.95;1.77;;;;;31.00;102228.00;;;;5036724;28;20199;-79
2022/06/16 11:43:32;;;;;;;3.17;1.63;;;;;31.00;102222.00;;;;5045434;28;20238;-79
2022/06/16 11:46:08;;;;;;;7.05;1.90;;;;;31.00;102225.00;;;;5042803;28;20228;-79
2022/06/16 11:48:47;;;;;;;1.58;1.30;;;;;31.00;102221.00;;;;5046916;28;20709;-79
2022/06/16 11:51:22;;;;;;;2.53;1.10;;;;;31.10;102217.00;;;;5047595;28;20195;-79
2022/06/16 11:54:01;;;;;;;3.90;1.52;;;;;31.00;102226.00;;;;5046910;28;20673;-78
2022/06/16 11:56:38;;;;;;;2.90;1.70;;;;;31.00;102217.00;;;;5031741;28;20203;-79
2022/06/16 11:59:27;;;;;;;3.38;1.63;;;;;31.00;102223.00;;;;5026453;28;21017;-79
2022/06/16 12:01:59;;;;;;;2.40;1.50;;;;;31.00;102223.00;;;;5042592;28;20207;-79
2022/06/16 12:04:51;;;;;;;2.30;1.42;;;;;30.90;102216.00;;;;5040256;28;20706;-79
2022/06/16 12:07:49;;;;;;;1.90;1.50;;;;;30.80;102225.00;;;;5047155;28;20231;-78
2022/06/16 12:10:26;;;;;;;3.97;1.40;;;;;30.90;102234.00;;;;5045065;28;20656;-78
2022/06/16 12:13:00;;;;;;;2.97;1.40;;;;;30.90;102226.00;;;;5045777;28;20210;-78
2022/06/16 12:15:35;;;;;;;2.88;1.67;;;;;30.90;102232.00;;;;5045518;28;20199;-78
2022/06/16 12:18:16;;;;;;;1.25;1.13;;;;;30.90;102226.00;;;;5047256;28;20199;-78
2022/06/16 12:20:58;;;;;;;2.90;1.30;;;;;30.90;102224.00;;;;5048051;28;20207;-78
2022/06/16 12:23:31;;;;;;;2.95;1.73;;;;;30.90;102230.00;;;;5048604;28;20203;-79
2022/06/16 12:26:05;;;;;;;2.30;1.40;;;;;30.90;102244.00;;;;5049359;28;20249;-78
2022/06/16 12:28:38;;;;;;;2.08;1.30;;;;;30.90;102243.00;;;;5048612;28;20546;-78
2022/06/16 12:31:11;;;;;;;2.33;1.40;;;;;30.90;102245.00;;;;5045082;28;20196;-78
2022/06/16 12:33:46;;;;;;;3.83;1.40;;;;;30.90;102256.00;;;;5050397;28;21066;-79
2022/06/16 12:36:18;;;;;;;2.15;1.52;;;;;31.00;102248.00;;;;5049539;28;20218;-78
2022/06/16 12:38:50;;;;;;;2.22;1.35;;;;;31.00;102241.00;;;;5050435;28;20199;-78
2022/06/16 12:41:22;;;;;;;2.92;1.60;;;;;31.00;102230.00;;;;5045322;28;20580;-79
2022/06/16 12:43:53;;;;;;;2.28;1.40;;;;;31.00;102241.00;;;;5047846;28;20220;-78